sensor_id;sensor_type;location;lat;lon;timestamp;P1;durP1;ratioP1;P2;durP2;ratioP2
48578;SDS011;34357;51.948;6.132;2023-06-14T00:00:42;7.43;;;3.42;;
48578;SDS011;34357;51.948;6.132;2023-06-14T00:03:09;7.60;;;3.42;;
48578;SDS011;34357;51.948;6.132;2023-06-14T00:05:37;8.70;;;3.42;;
48578;SDS011;34357;51.948;6.132;2023-06-14T00:08:06;5.85;;;3.15;;
48578;SDS011;34357;51.948;6.132;2023-06-14T00:10:36;7.72;;;3.65;;
48578;SDS011;34357;51.948;6.132;2023-06-14T00:13:02;14.77;;;3.78;;
48578;SDS011;34357;51.948;6.132;2023-06-14T00:15:30;9.65;;;3.75;;
48578;SDS011;34357;51.948;6.132;2023-06-14T00:17:59;8.40;;;3.25;;
48578;SDS011;34357;51.948;6.132;2023-06-14T00:20:29;6.93;;;3.40;;
48578;SDS011;34357;51.948;6.132;2023-06-14T00:22:57;8.15;;;3.10;;
48578;SDS011;34357;51.948;6.132;2023-06-14T00:25:24;10.80;;;3.40;;
48578;SDS011;34357;51.948;6.132;2023-06-14T00:27:53;8.10;;;3.78;;
48578;SDS011;34357;51.948;6.132;2023-06-14T00:30:19;6.55;;;3.13;;
48578;SDS011;34357;51.948;6.132;2023-06-14T00:32:45;5.22;;;3.00;;
48578;SDS011;34357;51.948;6.132;2023-06-14T00:35:12;8.68;;;3.65;;
48578;SDS011;34357;51.948;6.132;2023-06-14T00:37:39;4.85;;;2.85;;
48578;SDS011;34357;51.948;6.132;2023-06-14T00:40:05;8.65;;;3.08;;
48578;SDS011;34357;51.948;6.132;2023-06-14T00:42:32;6.45;;;2.90;;
48578;SDS011;34357;51.948;6.132;2023-06-14T00:44:59;5.68;;;3.50;;
48578;SDS011;34357;51.948;6.132;2023-06-14T00:47:25;6.50;;;2.90;;
48578;SDS011;34357;51.948;6.132;2023-06-14T00:49:52;7.43;;;3.40;;
48578;SDS011;34357;51.948;6.132;2023-06-14T00:52:20;5.40;;;3.20;;
48578;SDS011;34357;51.948;6.132;2023-06-14T00:54:50;6.70;;;2.83;;
48578;SDS011;34357;51.948;6.132;2023-06-14T00:57:16;8.13;;;2.90;;
48578;SDS011;34357;51.948;6.132;2023-06-14T00:59:43;12.95;;;3.10;;
48578;SDS011;34357;51.948;6.132;2023-06-14T01:02:13;5.13;;;3.30;;
48578;SDS011;34357;51.948;6.132;2023-06-14T01:04:40;8.38;;;3.17;;
48578;SDS011;34357;51.948;6.132;2023-06-14T01:12:38;7.30;;;3.30;;
48578;SDS011;34357;51.948;6.132;2023-06-14T01:15:05;7.90;;;2.88;;
48578;SDS011;34357;51.948;6.132;2023-06-14T01:17:32;7.13;;;3.40;;
48578;SDS011;34357;51.948;6.132;2023-06-14T01:20:01;8.85;;;3.15;;
48578;SDS011;34357;51.948;6.132;2023-06-14T01:22:28;6.38;;;3.05;;
48578;SDS011;34357;51.948;6.132;2023-06-14T01:24:54;8.05;;;2.75;;
48578;SDS011;34357;51.948;6.132;2023-06-14T01:27:22;5.15;;;3.20;;
48578;SDS011;34357;51.948;6.132;2023-06-14T01:29:50;5.38;;;3.17;;
48578;SDS011;34357;51.948;6.132;2023-06-14T01:32:25;6.05;;;2.63;;
48578;SDS011;34357;51.948;6.132;2023-06-14T01:34:53;7.05;;;2.78;;
48578;SDS011;34357;51.948;6.132;2023-06-14T01:37:19;6.38;;;3.13;;
48578;SDS011;34357;51.948;6.132;2023-06-14T01:39:47;5.05;;;3.30;;
48578;SDS011;34357;51.948;6.132;2023-06-14T01:44:44;5.20;;;2.58;;
48578;SDS011;34357;51.948;6.132;2023-06-14T01:47:11;16.17;;;3.17;;
48578;SDS011;34357;51.948;6.132;2023-06-14T01:49:38;12.63;;;3.20;;
48578;SDS011;34357;51.948;6.132;2023-06-14T01:52:04;11.07;;;2.72;;
48578;SDS011;34357;51.948;6.132;2023-06-14T01:54:31;6.93;;;2.85;;
48578;SDS011;34357;51.948;6.132;2023-06-14T01:56:57;6.10;;;2.83;;
48578;SDS011;34357;51.948;6.132;2023-06-14T01:59:22;9.07;;;2.97;;
48578;SDS011;34357;51.948;6.132;2023-06-14T02:01:48;7.28;;;3.30;;
48578;SDS011;34357;51.948;6.132;2023-06-14T02:04:14;7.30;;;3.03;;
48578;SDS011;34357;51.948;6.132;2023-06-14T02:06:40;8.05;;;3.35;;
48578;SDS011;34357;51.948;6.132;2023-06-14T02:09:05;6.03;;;2.75;;
48578;SDS011;34357;51.948;6.132;2023-06-14T02:11:31;7.68;;;3.00;;
48578;SDS011;34357;51.948;6.132;2023-06-14T02:13:57;6.25;;;3.13;;
48578;SDS011;34357;51.948;6.132;2023-06-14T02:16:25;6.78;;;3.15;;
48578;SDS011;34357;51.948;6.132;2023-06-14T02:18:53;7.57;;;3.17;;
48578;SDS011;34357;51.948;6.132;2023-06-14T02:21:18;5.78;;;3.00;;
48578;SDS011;34357;51.948;6.132;2023-06-14T02:23:45;6.03;;;3.53;;
48578;SDS011;34357;51.948;6.132;2023-06-14T02:26:11;6.80;;;2.67;;
48578;SDS011;34357;51.948;6.132;2023-06-14T02:28:37;6.13;;;3.40;;
48578;SDS011;34357;51.948;6.132;2023-06-14T02:31:03;10.27;;;3.42;;
48578;SDS011;34357;51.948;6.132;2023-06-14T02:33:29;6.47;;;2.80;;
48578;SDS011;34357;51.948;6.132;2023-06-14T02:35:55;7.32;;;3.17;;
48578;SDS011;34357;51.948;6.132;2023-06-14T02:38:21;9.00;;;2.80;;
48578;SDS011;34357;51.948;6.132;2023-06-14T02:40:47;7.40;;;2.80;;
48578;SDS011;34357;51.948;6.132;2023-06-14T02:43:13;7.20;;;3.30;;
48578;SDS011;34357;51.948;6.132;2023-06-14T02:45:39;5.70;;;3.60;;
48578;SDS011;34357;51.948;6.132;2023-06-14T02:48:05;5.75;;;2.80;;
48578;SDS011;34357;51.948;6.132;2023-06-14T02:50:32;12.00;;;2.72;;
48578;SDS011;34357;51.948;6.132;2023-06-14T02:52:58;10.00;;;3.45;;
48578;SDS011;34357;51.948;6.132;2023-06-14T02:55:24;8.75;;;2.97;;
48578;SDS011;34357;51.948;6.132;2023-06-14T02:57:49;10.73;;;3.20;;
48578;SDS011;34357;51.948;6.132;2023-06-14T03:00:16;7.18;;;3.00;;
48578;SDS011;34357;51.948;6.132;2023-06-14T03:02:45;7.40;;;2.92;;
48578;SDS011;34357;51.948;6.132;2023-06-14T03:05:12;7.93;;;2.78;;
48578;SDS011;34357;51.948;6.132;2023-06-14T03:07:38;6.95;;;3.72;;
48578;SDS011;34357;51.948;6.132;2023-06-14T03:10:09;10.18;;;3.55;;
48578;SDS011;34357;51.948;6.132;2023-06-14T03:12:36;8.52;;;2.88;;
48578;SDS011;34357;51.948;6.132;2023-06-14T03:15:03;12.38;;;3.00;;
48578;SDS011;34357;51.948;6.132;2023-06-14T03:17:33;8.70;;;3.27;;
48578;SDS011;34357;51.948;6.132;2023-06-14T03:20:03;6.68;;;3.20;;
48578;SDS011;34357;51.948;6.132;2023-06-14T03:22:30;10.38;;;3.38;;
48578;SDS011;34357;51.948;6.132;2023-06-14T03:24:59;11.63;;;3.65;;
48578;SDS011;34357;51.948;6.132;2023-06-14T03:27:26;6.18;;;3.20;;
48578;SDS011;34357;51.948;6.132;2023-06-14T03:29:54;7.85;;;3.20;;
48578;SDS011;34357;51.948;6.132;2023-06-14T03:32:20;9.07;;;3.53;;
48578;SDS011;34357;51.948;6.132;2023-06-14T03:34:46;7.78;;;2.95;;
48578;SDS011;34357;51.948;6.132;2023-06-14T03:37:17;14.18;;;3.40;;
48578;SDS011;34357;51.948;6.132;2023-06-14T03:39:44;6.95;;;2.80;;
48578;SDS011;34357;51.948;6.132;2023-06-14T03:42:15;6.57;;;3.13;;
48578;SDS011;34357;51.948;6.132;2023-06-14T03:44:42;5.70;;;2.90;;
48578;SDS011;34357;51.948;6.132;2023-06-14T03:47:08;3.88;;;2.95;;
48578;SDS011;34357;51.948;6.132;2023-06-14T03:49:34;13.55;;;2.80;;
48578;SDS011;34357;51.948;6.132;2023-06-14T03:52:00;6.68;;;2.80;;
48578;SDS011;34357;51.948;6.132;2023-06-14T03:54:27;8.75;;;3.35;;
48578;SDS011;34357;51.948;6.132;2023-06-14T03:56:54;9.45;;;3.70;;
48578;SDS011;34357;51.948;6.132;2023-06-14T03:59:22;9.82;;;3.20;;
48578;SDS011;34357;51.948;6.132;2023-06-14T04:01:48;8.15;;;2.85;;
48578;SDS011;34357;51.948;6.132;2023-06-14T04:04:15;7.85;;;3.13;;
48578;SDS011;34357;51.948;6.132;2023-06-14T04:06:43;8.93;;;3.08;;
48578;SDS011;34357;51.948;6.132;2023-06-14T04:09:13;9.23;;;3.20;;
48578;SDS011;34357;51.948;6.132;2023-06-14T04:11:40;5.95;;;3.17;;
48578;SDS011;34357;51.948;6.132;2023-06-14T04:14:06;12.23;;;2.95;;
48578;SDS011;34357;51.948;6.132;2023-06-14T04:16:32;10.13;;;3.00;;
48578;SDS011;34357;51.948;6.132;2023-06-14T04:18:59;8.45;;;3.28;;
48578;SDS011;34357;51.948;6.132;2023-06-14T04:21:25;7.40;;;3.08;;
48578;SDS011;34357;51.948;6.132;2023-06-14T04:23:54;6.82;;;3.05;;
48578;SDS011;34357;51.948;6.132;2023-06-14T04:26:23;9.52;;;2.75;;
48578;SDS011;34357;51.948;6.132;2023-06-14T04:28:55;8.02;;;3.20;;
48578;SDS011;34357;51.948;6.132;2023-06-14T04:31:23;8.82;;;3.40;;
48578;SDS011;34357;51.948;6.132;2023-06-14T04:33:55;5.47;;;3.38;;
48578;SDS011;34357;51.948;6.132;2023-06-14T04:36:22;6.45;;;2.90;;
48578;SDS011;34357;51.948;6.132;2023-06-14T04:38:48;11.32;;;3.25;;
48578;SDS011;34357;51.948;6.132;2023-06-14T04:41:15;8.88;;;3.30;;
48578;SDS011;34357;51.948;6.132;2023-06-14T04:43:41;5.82;;;3.35;;
48578;SDS011;34357;51.948;6.132;2023-06-14T04:46:08;9.98;;;3.40;;
48578;SDS011;34357;51.948;6.132;2023-06-14T04:48:39;6.78;;;3.45;;
48578;SDS011;34357;51.948;6.132;2023-06-14T04:51:09;10.30;;;3.33;;
48578;SDS011;34357;51.948;6.132;2023-06-14T04:53:35;7.93;;;3.10;;
48578;SDS011;34357;51.948;6.132;2023-06-14T04:56:02;5.18;;;2.88;;
48578;SDS011;34357;51.948;6.132;2023-06-14T04:58:30;8.90;;;2.85;;
48578;SDS011;34357;51.948;6.132;2023-06-14T05:00:57;6.90;;;3.22;;
48578;SDS011;34357;51.948;6.132;2023-06-14T05:03:24;10.40;;;3.08;;
48578;SDS011;34357;51.948;6.132;2023-06-14T05:05:52;11.10;;;2.97;;
48578;SDS011;34357;51.948;6.132;2023-06-14T05:08:18;7.07;;;2.90;;
48578;SDS011;34357;51.948;6.132;2023-06-14T05:10:48;4.95;;;2.92;;
48578;SDS011;34357;51.948;6.132;2023-06-14T05:13:14;6.15;;;2.78;;
48578;SDS011;34357;51.948;6.132;2023-06-14T05:15:40;6.90;;;2.58;;
48578;SDS011;34357;51.948;6.132;2023-06-14T05:18:06;6.20;;;2.88;;
48578;SDS011;34357;51.948;6.132;2023-06-14T05:20:35;7.93;;;2.70;;
48578;SDS011;34357;51.948;6.132;2023-06-14T05:23:02;6.60;;;2.90;;
48578;SDS011;34357;51.948;6.132;2023-06-14T05:25:28;4.35;;;2.60;;
48578;SDS011;34357;51.948;6.132;2023-06-14T05:27:54;8.68;;;2.90;;
48578;SDS011;34357;51.948;6.132;2023-06-14T05:30:20;4.80;;;2.85;;
48578;SDS011;34357;51.948;6.132;2023-06-14T05:32:46;4.60;;;2.95;;
48578;SDS011;34357;51.948;6.132;2023-06-14T05:35:12;8.10;;;2.58;;
48578;SDS011;34357;51.948;6.132;2023-06-14T05:37:38;5.80;;;2.55;;
48578;SDS011;34357;51.948;6.132;2023-06-14T05:40:04;7.18;;;2.80;;
48578;SDS011;34357;51.948;6.132;2023-06-14T05:42:31;5.65;;;2.67;;
48578;SDS011;34357;51.948;6.132;2023-06-14T05:44:57;4.38;;;2.70;;
48578;SDS011;34357;51.948;6.132;2023-06-14T05:47:26;7.68;;;2.90;;
48578;SDS011;34357;51.948;6.132;2023-06-14T05:49:52;9.73;;;2.70;;
48578;SDS011;34357;51.948;6.132;2023-06-14T05:52:19;6.18;;;2.45;;
48578;SDS011;34357;51.948;6.132;2023-06-14T05:54:45;7.80;;;2.80;;
48578;SDS011;34357;51.948;6.132;2023-06-14T05:57:11;7.63;;;3.20;;
48578;SDS011;34357;51.948;6.132;2023-06-14T05:59:37;9.05;;;2.75;;
48578;SDS011;34357;51.948;6.132;2023-06-14T06:02:03;8.98;;;2.90;;
48578;SDS011;34357;51.948;6.132;2023-06-14T06:04:29;10.27;;;3.30;;
48578;SDS011;34357;51.948;6.132;2023-06-14T06:06:54;5.20;;;2.92;;
48578;SDS011;34357;51.948;6.132;2023-06-14T06:09:20;5.38;;;2.90;;
48578;SDS011;34357;51.948;6.132;2023-06-14T06:11:46;6.13;;;2.80;;
48578;SDS011;34357;51.948;6.132;2023-06-14T06:14:12;5.57;;;2.55;;
48578;SDS011;34357;51.948;6.132;2023-06-14T06:16:37;6.68;;;3.00;;
48578;SDS011;34357;51.948;6.132;2023-06-14T06:19:03;7.47;;;2.60;;
48578;SDS011;34357;51.948;6.132;2023-06-14T06:21:29;5.07;;;2.90;;
48578;SDS011;34357;51.948;6.132;2023-06-14T06:23:54;5.88;;;2.92;;
48578;SDS011;34357;51.948;6.132;2023-06-14T06:26:21;6.82;;;2.80;;
48578;SDS011;34357;51.948;6.132;2023-06-14T06:28:48;6.75;;;3.00;;
48578;SDS011;34357;51.948;6.132;2023-06-14T06:31:14;7.82;;;2.88;;
48578;SDS011;34357;51.948;6.132;2023-06-14T06:33:40;3.83;;;2.60;;
48578;SDS011;34357;51.948;6.132;2023-06-14T06:36:06;5.82;;;2.53;;
48578;SDS011;34357;51.948;6.132;2023-06-14T06:38:32;4.50;;;2.88;;
48578;SDS011;34357;51.948;6.132;2023-06-14T06:40:58;4.90;;;2.33;;
48578;SDS011;34357;51.948;6.132;2023-06-14T06:43:23;4.13;;;2.40;;
48578;SDS011;34357;51.948;6.132;2023-06-14T06:45:49;5.95;;;2.22;;
48578;SDS011;34357;51.948;6.132;2023-06-14T06:48:15;4.43;;;2.67;;
48578;SDS011;34357;51.948;6.132;2023-06-14T06:50:41;7.45;;;2.28;;
48578;SDS011;34357;51.948;6.132;2023-06-14T06:53:06;7.00;;;2.22;;
48578;SDS011;34357;51.948;6.132;2023-06-14T06:55:32;4.93;;;2.10;;
48578;SDS011;34357;51.948;6.132;2023-06-14T06:57:58;3.88;;;1.95;;
48578;SDS011;34357;51.948;6.132;2023-06-14T07:00:25;7.72;;;1.85;;
48578;SDS011;34357;51.948;6.132;2023-06-14T07:02:51;7.07;;;2.00;;
48578;SDS011;34357;51.948;6.132;2023-06-14T07:05:17;6.97;;;1.73;;
48578;SDS011;34357;51.948;6.132;2023-06-14T07:07:43;2.58;;;1.88;;
48578;SDS011;34357;51.948;6.132;2023-06-14T07:10:09;7.30;;;2.13;;
48578;SDS011;34357;51.948;6.132;2023-06-14T07:12:35;6.13;;;1.60;;
48578;SDS011;34357;51.948;6.132;2023-06-14T07:15:05;8.88;;;1.95;;
48578;SDS011;34357;51.948;6.132;2023-06-14T07:17:34;5.15;;;1.75;;
48578;SDS011;34357;51.948;6.132;2023-06-14T07:20:01;2.63;;;1.48;;
48578;SDS011;34357;51.948;6.132;2023-06-14T07:22:32;8.40;;;1.75;;
48578;SDS011;34357;51.948;6.132;2023-06-14T07:24:58;4.45;;;1.60;;
48578;SDS011;34357;51.948;6.132;2023-06-14T07:27:24;3.08;;;1.50;;
48578;SDS011;34357;51.948;6.132;2023-06-14T07:29:50;4.20;;;1.95;;
48578;SDS011;34357;51.948;6.132;2023-06-14T07:32:15;2.83;;;1.70;;
48578;SDS011;34357;51.948;6.132;2023-06-14T07:34:41;5.15;;;1.58;;
48578;SDS011;34357;51.948;6.132;2023-06-14T07:37:07;1.52;;;1.13;;
48578;SDS011;34357;51.948;6.132;2023-06-14T07:39:33;2.60;;;1.65;;
48578;SDS011;34357;51.948;6.132;2023-06-14T07:41:58;4.45;;;1.40;;
48578;SDS011;34357;51.948;6.132;2023-06-14T07:44:24;2.63;;;1.42;;
48578;SDS011;34357;51.948;6.132;2023-06-14T07:46:50;3.35;;;1.20;;
48578;SDS011;34357;51.948;6.132;2023-06-14T07:49:15;3.13;;;1.60;;
48578;SDS011;34357;51.948;6.132;2023-06-14T07:51:41;6.78;;;1.77;;
48578;SDS011;34357;51.948;6.132;2023-06-14T07:54:09;3.90;;;1.60;;
48578;SDS011;34357;51.948;6.132;2023-06-14T07:56:35;9.23;;;2.13;;
48578;SDS011;34357;51.948;6.132;2023-06-14T07:59:01;2.42;;;1.70;;
48578;SDS011;34357;51.948;6.132;2023-06-14T08:01:27;3.63;;;1.80;;
48578;SDS011;34357;51.948;6.132;2023-06-14T08:03:53;4.10;;;1.63;;
48578;SDS011;34357;51.948;6.132;2023-06-14T08:06:19;5.03;;;1.50;;
48578;SDS011;34357;51.948;6.132;2023-06-14T08:08:45;4.15;;;1.45;;
48578;SDS011;34357;51.948;6.132;2023-06-14T08:11:11;8.85;;;1.73;;
48578;SDS011;34357;51.948;6.132;2023-06-14T08:13:37;6.63;;;1.58;;
48578;SDS011;34357;51.948;6.132;2023-06-14T08:16:03;4.43;;;1.42;;
48578;SDS011;34357;51.948;6.132;2023-06-14T08:18:30;4.22;;;1.77;;
48578;SDS011;34357;51.948;6.132;2023-06-14T08:20:56;4.57;;;1.58;;
48578;SDS011;34357;51.948;6.132;2023-06-14T08:23:22;5.53;;;1.60;;
48578;SDS011;34357;51.948;6.132;2023-06-14T08:25:48;5.07;;;1.52;;
48578;SDS011;34357;51.948;6.132;2023-06-14T08:28:14;7.20;;;1.80;;
48578;SDS011;34357;51.948;6.132;2023-06-14T08:30:41;3.08;;;1.77;;
48578;SDS011;34357;51.948;6.132;2023-06-14T08:33:07;5.63;;;1.55;;
48578;SDS011;34357;51.948;6.132;2023-06-14T08:35:33;3.33;;;1.40;;
48578;SDS011;34357;51.948;6.132;2023-06-14T08:38:02;4.65;;;1.27;;
48578;SDS011;34357;51.948;6.132;2023-06-14T08:40:30;3.88;;;1.48;;
48578;SDS011;34357;51.948;6.132;2023-06-14T08:42:56;3.80;;;1.70;;
48578;SDS011;34357;51.948;6.132;2023-06-14T08:45:22;5.65;;;1.80;;
48578;SDS011;34357;51.948;6.132;2023-06-14T08:47:51;4.63;;;1.50;;
48578;SDS011;34357;51.948;6.132;2023-06-14T08:50:23;6.25;;;1.75;;
48578;SDS011;34357;51.948;6.132;2023-06-14T08:52:52;3.45;;;1.48;;
48578;SDS011;34357;51.948;6.132;2023-06-14T08:55:21;4.75;;;1.42;;
48578;SDS011;34357;51.948;6.132;2023-06-14T08:57:55;2.40;;;1.40;;
48578;SDS011;34357;51.948;6.132;2023-06-14T09:00:25;9.45;;;1.50;;
48578;SDS011;34357;51.948;6.132;2023-06-14T09:02:53;2.47;;;1.30;;
48578;SDS011;34357;51.948;6.132;2023-06-14T09:05:25;3.90;;;1.17;;
48578;SDS011;34357;51.948;6.132;2023-06-14T09:07:52;4.00;;;1.60;;
48578;SDS011;34357;51.948;6.132;2023-06-14T09:10:21;3.53;;;1.20;;
48578;SDS011;34357;51.948;6.132;2023-06-14T09:12:47;4.18;;;1.10;;
48578;SDS011;34357;51.948;6.132;2023-06-14T09:15:13;9.52;;;1.55;;
48578;SDS011;34357;51.948;6.132;2023-06-14T09:17:39;4.60;;;1.40;;
48578;SDS011;34357;51.948;6.132;2023-06-14T09:20:06;2.75;;;1.33;;
48578;SDS011;34357;51.948;6.132;2023-06-14T09:22:38;5.97;;;1.45;;
48578;SDS011;34357;51.948;6.132;2023-06-14T09:25:05;5.65;;;1.70;;
48578;SDS011;34357;51.948;6.132;2023-06-14T09:27:32;4.65;;;1.33;;
48578;SDS011;34357;51.948;6.132;2023-06-14T09:29:58;7.03;;;1.45;;
48578;SDS011;34357;51.948;6.132;2023-06-14T09:32:24;6.93;;;1.55;;
48578;SDS011;34357;51.948;6.132;2023-06-14T09:34:50;1.60;;;1.30;;
48578;SDS011;34357;51.948;6.132;2023-06-14T09:37:26;6.97;;;1.25;;
48578;SDS011;34357;51.948;6.132;2023-06-14T09:39:55;3.85;;;1.30;;
48578;SDS011;34357;51.948;6.132;2023-06-14T09:42:21;5.80;;;1.02;;
48578;SDS011;34357;51.948;6.132;2023-06-14T09:44:48;3.15;;;1.20;;
48578;SDS011;34357;51.948;6.132;2023-06-14T09:47:15;2.03;;;1.20;;
48578;SDS011;34357;51.948;6.132;2023-06-14T09:49:41;2.90;;;1.20;;
48578;SDS011;34357;51.948;6.132;2023-06-14T09:52:12;2.53;;;1.42;;
48578;SDS011;34357;51.948;6.132;2023-06-14T09:54:43;8.15;;;1.50;;
48578;SDS011;34357;51.948;6.132;2023-06-14T09:57:20;3.30;;;1.10;;
48578;SDS011;34357;51.948;6.132;2023-06-14T09:59:48;3.03;;;1.00;;
48578;SDS011;34357;51.948;6.132;2023-06-14T10:02:26;3.45;;;1.27;;
48578;SDS011;34357;51.948;6.132;2023-06-14T10:05:03;3.90;;;0.93;;
48578;SDS011;34357;51.948;6.132;2023-06-14T10:07:40;4.90;;;1.08;;
48578;SDS011;34357;51.948;6.132;2023-06-14T10:10:13;4.43;;;1.10;;
48578;SDS011;34357;51.948;6.132;2023-06-14T10:12:39;3.47;;;1.10;;
48578;SDS011;34357;51.948;6.132;2023-06-14T10:15:07;2.08;;;1.10;;
48578;SDS011;34357;51.948;6.132;2023-06-14T10:17:43;1.88;;;1.13;;
48578;SDS011;34357;51.948;6.132;2023-06-14T10:23:31;1.42;;;1.10;;
48578;SDS011;34357;51.948;6.132;2023-06-14T10:25:55;2.60;;;1.10;;
48578;SDS011;34357;51.948;6.132;2023-06-14T10:28:22;2.25;;;1.10;;
48578;SDS011;34357;51.948;6.132;2023-06-14T10:33:29;3.25;;;1.15;;
48578;SDS011;34357;51.948;6.132;2023-06-14T10:38:33;2.38;;;1.48;;
48578;SDS011;34357;51.948;6.132;2023-06-14T10:41:01;2.70;;;1.20;;
48578;SDS011;34357;51.948;6.132;2023-06-14T10:43:28;3.17;;;1.30;;
48578;SDS011;34357;51.948;6.132;2023-06-14T10:48:41;2.10;;;1.20;;
48578;SDS011;34357;51.948;6.132;2023-06-14T10:53:41;4.60;;;1.30;;
48578;SDS011;34357;51.948;6.132;2023-06-14T10:56:08;3.47;;;1.30;;
48578;SDS011;34357;51.948;6.132;2023-06-14T10:58:34;4.35;;;1.30;;
48578;SDS011;34357;51.948;6.132;2023-06-14T11:01:00;1.58;;;1.42;;
48578;SDS011;34357;51.948;6.132;2023-06-14T11:03:43;3.25;;;1.52;;
48578;SDS011;34357;51.948;6.132;2023-06-14T11:06:22;2.70;;;1.50;;
48578;SDS011;34357;51.948;6.132;2023-06-14T11:09:11;5.53;;;1.85;;
48578;SDS011;34357;51.948;6.132;2023-06-14T11:11:42;6.40;;;1.80;;
48578;SDS011;34357;51.948;6.132;2023-06-14T11:14:09;4.32;;;1.33;;
48578;SDS011;34357;51.948;6.132;2023-06-14T11:16:35;2.15;;;1.30;;
48578;SDS011;34357;51.948;6.132;2023-06-14T11:19:02;6.25;;;1.45;;
48578;SDS011;34357;51.948;6.132;2023-06-14T11:21:34;4.50;;;1.40;;
48578;SDS011;34357;51.948;6.132;2023-06-14T11:24:09;4.63;;;1.25;;
48578;SDS011;34357;51.948;6.132;2023-06-14T11:26:37;7.28;;;1.48;;
48578;SDS011;34357;51.948;6.132;2023-06-14T11:29:03;5.60;;;1.48;;
48578;SDS011;34357;51.948;6.132;2023-06-14T11:31:29;5.97;;;1.50;;
48578;SDS011;34357;51.948;6.132;2023-06-14T11:33:55;4.10;;;1.38;;
48578;SDS011;34357;51.948;6.132;2023-06-14T11:36:23;2.72;;;1.50;;
48578;SDS011;34357;51.948;6.132;2023-06-14T11:39:01;1.63;;;1.30;;
48578;SDS011;34357;51.948;6.132;2023-06-14T11:41:39;2.70;;;1.25;;
48578;SDS011;34357;51.948;6.132;2023-06-14T11:44:06;4.65;;;1.30;;
48578;SDS011;34357;51.948;6.132;2023-06-14T11:46:33;5.80;;;1.35;;
48578;SDS011;34357;51.948;6.132;2023-06-14T11:48:59;4.40;;;1.48;;
48578;SDS011;34357;51.948;6.132;2023-06-14T11:51:28;3.95;;;1.35;;
48578;SDS011;34357;51.948;6.132;2023-06-14T11:53:55;4.20;;;1.10;;
48578;SDS011;34357;51.948;6.132;2023-06-14T11:56:21;4.25;;;1.50;;
48578;SDS011;34357;51.948;6.132;2023-06-14T11:58:47;10.48;;;1.60;;
48578;SDS011;34357;51.948;6.132;2023-06-14T12:01:17;3.38;;;1.30;;
48578;SDS011;34357;51.948;6.132;2023-06-14T12:03:49;2.63;;;1.10;;
48578;SDS011;34357;51.948;6.132;2023-06-14T12:06:16;2.65;;;1.20;;
48578;SDS011;34357;51.948;6.132;2023-06-14T12:08:50;2.47;;;1.38;;
48578;SDS011;34357;51.948;6.132;2023-06-14T12:11:17;2.05;;;1.20;;
48578;SDS011;34357;51.948;6.132;2023-06-14T12:13:43;4.32;;;1.25;;
48578;SDS011;34357;51.948;6.132;2023-06-14T12:16:09;5.43;;;1.48;;
48578;SDS011;34357;51.948;6.132;2023-06-14T12:18:36;1.98;;;1.13;;
48578;SDS011;34357;51.948;6.132;2023-06-14T12:21:07;3.92;;;1.10;;
48578;SDS011;34357;51.948;6.132;2023-06-14T12:23:44;2.42;;;1.02;;
48578;SDS011;34357;51.948;6.132;2023-06-14T12:26:18;1.77;;;0.98;;
48578;SDS011;34357;51.948;6.132;2023-06-14T12:28:45;3.95;;;0.90;;
48578;SDS011;34357;51.948;6.132;2023-06-14T12:31:12;5.53;;;1.10;;
48578;SDS011;34357;51.948;6.132;2023-06-14T12:33:39;2.35;;;0.90;;
48578;SDS011;34357;51.948;6.132;2023-06-14T12:36:07;4.03;;;1.02;;
48578;SDS011;34357;51.948;6.132;2023-06-14T12:38:34;3.67;;;1.15;;
48578;SDS011;34357;51.948;6.132;2023-06-14T12:41:00;5.45;;;0.90;;
48578;SDS011;34357;51.948;6.132;2023-06-14T12:43:26;3.55;;;1.10;;
48578;SDS011;34357;51.948;6.132;2023-06-14T12:45:51;3.80;;;0.75;;
48578;SDS011;34357;51.948;6.132;2023-06-14T12:48:17;3.33;;;0.90;;
48578;SDS011;34357;51.948;6.132;2023-06-14T12:50:43;3.92;;;0.98;;
48578;SDS011;34357;51.948;6.132;2023-06-14T12:53:09;5.38;;;0.95;;
48578;SDS011;34357;51.948;6.132;2023-06-14T12:55:34;4.05;;;0.88;;
48578;SDS011;34357;51.948;6.132;2023-06-14T12:58:00;2.35;;;0.82;;
48578;SDS011;34357;51.948;6.132;2023-06-14T13:00:26;2.08;;;0.80;;
48578;SDS011;34357;51.948;6.132;2023-06-14T13:02:52;3.67;;;0.90;;
48578;SDS011;34357;51.948;6.132;2023-06-14T13:05:18;2.22;;;1.02;;
48578;SDS011;34357;51.948;6.132;2023-06-14T13:07:44;1.55;;;0.60;;
48578;SDS011;34357;51.948;6.132;2023-06-14T13:10:10;3.33;;;0.70;;
48578;SDS011;34357;51.948;6.132;2023-06-14T13:12:36;4.88;;;0.93;;
48578;SDS011;34357;51.948;6.132;2023-06-14T13:15:02;1.50;;;0.90;;
48578;SDS011;34357;51.948;6.132;2023-06-14T13:17:28;2.72;;;1.00;;
48578;SDS011;34357;51.948;6.132;2023-06-14T13:19:54;3.15;;;0.80;;
48578;SDS011;34357;51.948;6.132;2023-06-14T13:22:20;4.82;;;0.80;;
48578;SDS011;34357;51.948;6.132;2023-06-14T13:24:46;3.25;;;0.90;;
48578;SDS011;34357;51.948;6.132;2023-06-14T13:27:12;1.33;;;0.73;;
48578;SDS011;34357;51.948;6.132;2023-06-14T13:29:39;5.75;;;0.88;;
48578;SDS011;34357;51.948;6.132;2023-06-14T13:32:05;3.67;;;0.85;;
48578;SDS011;34357;51.948;6.132;2023-06-14T13:34:32;2.30;;;0.90;;
48578;SDS011;34357;51.948;6.132;2023-06-14T13:36:58;4.05;;;0.80;;
48578;SDS011;34357;51.948;6.132;2023-06-14T13:39:27;1.45;;;0.93;;
48578;SDS011;34357;51.948;6.132;2023-06-14T13:41:53;8.40;;;0.80;;
48578;SDS011;34357;51.948;6.132;2023-06-14T13:44:18;5.18;;;1.00;;
48578;SDS011;34357;51.948;6.132;2023-06-14T13:46:46;10.05;;;1.08;;
48578;SDS011;34357;51.948;6.132;2023-06-14T13:49:12;2.72;;;0.85;;
48578;SDS011;34357;51.948;6.132;2023-06-14T13:51:38;2.05;;;1.05;;
48578;SDS011;34357;51.948;6.132;2023-06-14T13:54:05;2.42;;;0.80;;
48578;SDS011;34357;51.948;6.132;2023-06-14T13:56:31;2.75;;;0.80;;
48578;SDS011;34357;51.948;6.132;2023-06-14T13:58:57;2.35;;;0.60;;
48578;SDS011;34357;51.948;6.132;2023-06-14T14:01:25;1.40;;;0.90;;
48578;SDS011;34357;51.948;6.132;2023-06-14T14:03:53;2.33;;;0.88;;
48578;SDS011;34357;51.948;6.132;2023-06-14T14:06:19;2.65;;;1.10;;
48578;SDS011;34357;51.948;6.132;2023-06-14T14:08:46;1.42;;;1.08;;
48578;SDS011;34357;51.948;6.132;2023-06-14T14:11:12;5.32;;;1.00;;
48578;SDS011;34357;51.948;6.132;2023-06-14T14:13:39;1.40;;;0.90;;
48578;SDS011;34357;51.948;6.132;2023-06-14T14:16:06;2.95;;;0.90;;
48578;SDS011;34357;51.948;6.132;2023-06-14T14:18:32;2.90;;;0.80;;
48578;SDS011;34357;51.948;6.132;2023-06-14T14:21:01;2.80;;;0.90;;
48578;SDS011;34357;51.948;6.132;2023-06-14T14:23:27;4.15;;;0.80;;
48578;SDS011;34357;51.948;6.132;2023-06-14T14:25:53;3.05;;;1.13;;
48578;SDS011;34357;51.948;6.132;2023-06-14T14:28:19;3.45;;;1.00;;
48578;SDS011;34357;51.948;6.132;2023-06-14T14:30:46;1.10;;;0.90;;
48578;SDS011;34357;51.948;6.132;2023-06-14T14:33:13;4.00;;;0.90;;
48578;SDS011;34357;51.948;6.132;2023-06-14T14:35:42;2.10;;;0.80;;
48578;SDS011;34357;51.948;6.132;2023-06-14T14:38:11;1.42;;;0.77;;
48578;SDS011;34357;51.948;6.132;2023-06-14T14:40:38;3.75;;;1.02;;
48578;SDS011;34357;51.948;6.132;2023-06-14T14:43:05;4.85;;;1.00;;
48578;SDS011;34357;51.948;6.132;2023-06-14T14:45:31;4.40;;;0.88;;
48578;SDS011;34357;51.948;6.132;2023-06-14T14:47:57;1.85;;;1.13;;
48578;SDS011;34357;51.948;6.132;2023-06-14T14:50:25;1.25;;;0.82;;
48578;SDS011;34357;51.948;6.132;2023-06-14T14:52:51;4.05;;;1.10;;
48578;SDS011;34357;51.948;6.132;2023-06-14T14:55:16;3.95;;;1.00;;
48578;SDS011;34357;51.948;6.132;2023-06-14T14:57:43;5.03;;;1.10;;
48578;SDS011;34357;51.948;6.132;2023-06-14T15:00:10;2.70;;;0.77;;
48578;SDS011;34357;51.948;6.132;2023-06-14T15:02:36;3.20;;;1.00;;
48578;SDS011;34357;51.948;6.132;2023-06-14T15:05:02;4.20;;;0.98;;
48578;SDS011;34357;51.948;6.132;2023-06-14T15:07:29;3.33;;;1.13;;
48578;SDS011;34357;51.948;6.132;2023-06-14T15:09:56;2.08;;;1.00;;